Time;durP1;ratioP1;P1;durP2;ratioP2;P2;SDS_P1;SDS_P2;PMS_P1;PMS_P2;Temp;Humidity;BMP_temperature;BMP_pressure;BME280_temperature;BME280_humidity;BME280_pressure;Samples;Min_cycle;Max_cycle;Signal;HPM_P1;HPM_P2
2023/07/24 00:01:12;;;;;;;0.10;0.10;;;17.60;99.90;;;;;;5038660;28;20496;-67
2023/07/24 00:03:37;;;;;;;0.00;0.00;;;17.60;99.90;;;;;;5027180;28;20041;-67
2023/07/24 00:06:03;;;;;;;0.20;0.20;;;17.60;99.90;;;;;;5027842;28;20048;-67
2023/07/24 00:08:28;;;;;;;1.17;0.95;;;17.60;99.90;;;;;;5031227;28;20053;-67
2023/07/24 00:10:54;;;;;;;1.35;0.43;;;17.50;99.90;;;;;;5027882;28;20053;-67
2023/07/24 00:13:20;;;;;;;0.00;0.00;;;17.50;99.90;;;;;;5020674;28;20091;-67
2023/07/24 00:15:45;;;;;;;0.55;0.55;;;17.50;99.90;;;;;;5027823;28;20045;-67
2023/07/24 00:18:11;;;;;;;0.22;0.22;;;17.50;99.90;;;;;;5024680;28;20037;-67
2023/07/24 00:20:36;;;;;;;7.32;1.55;;;17.50;99.90;;;;;;5032263;28;20045;-67
2023/07/24 00:23:02;;;;;;;0.00;0.00;;;17.50;99.90;;;;;;5028547;28;20037;-67
2023/07/24 00:25:28;;;;;;;2.38;2.05;;;17.50;99.90;;;;;;5023377;28;20030;-67
2023/07/24 00:27:54;;;;;;;0.00;0.00;;;17.50;99.90;;;;;;5029456;28;20485;-67
2023/07/24 00:30:19;;;;;;;0.43;0.43;;;17.50;99.90;;;;;;5024361;28;20072;-67
2023/07/24 00:32:45;;;;;;;0.10;0.10;;;17.40;99.90;;;;;;5022802;28;20049;-67
2023/07/24 00:35:10;;;;;;;0.00;0.00;;;17.50;99.90;;;;;;5025111;28;20140;-67
2023/07/24 00:37:37;;;;;;;0.10;0.10;;;17.50;99.90;;;;;;5023754;28;20088;-67
2023/07/24 00:40:03;;;;;;;0.40;0.40;;;17.40;99.90;;;;;;5031385;28;20132;-67
2023/07/24 00:42:29;;;;;;;0.35;0.35;;;17.40;99.90;;;;;;5028065;28;20420;-67
2023/07/24 00:44:55;;;;;;;0.00;0.00;;;17.40;99.90;;;;;;5024540;28;20037;-67
2023/07/24 00:47:21;;;;;;;2.40;1.55;;;17.40;99.90;;;;;;5030817;28;20477;-67
2023/07/24 00:49:48;;;;;;;0.08;0.08;;;17.40;99.90;;;;;;5024233;28;20112;-67
2023/07/24 00:52:15;;;;;;;0.10;0.10;;;17.30;99.90;;;;;;5029007;28;20489;-67
2023/07/24 00:54:41;;;;;;;0.00;0.00;;;17.30;99.90;;;;;;5026703;28;20489;-67
2023/07/24 00:57:07;;;;;;;4.20;0.63;;;17.30;99.90;;;;;;5025131;28;20053;-67
2023/07/24 00:59:33;;;;;;;0.00;0.00;;;17.30;99.90;;;;;;5029837;28;20359;-67
2023/07/24 01:01:59;;;;;;;6.57;0.73;;;17.20;99.90;;;;;;5027534;28;20092;-67
2023/07/24 01:04:25;;;;;;;0.28;0.28;;;17.20;99.90;;;;;;5021478;28;20046;-67
2023/07/24 01:06:51;;;;;;;0.00;0.00;;;17.20;99.90;;;;;;5019196;28;20055;-67
2023/07/24 01:09:16;;;;;;;5.63;0.98;;;17.10;99.90;;;;;;5023114;28;20034;-67
2023/07/24 01:11:56;;;;;;;0.30;0.30;;;17.10;99.90;;;;;;5021074;28;20041;-67
2023/07/24 01:14:29;;;;;;;0.15;0.15;;;17.10;99.90;;;;;;5026127;28;20096;-67
2023/07/24 01:16:58;;;;;;;0.10;0.10;;;17.00;99.90;;;;;;5016155;28;20413;-67
2023/07/24 01:19:42;;;;;;;0.00;0.00;;;17.00;99.90;;;;;;5021876;28;20515;-67
2023/07/24 01:22:29;;;;;;;0.00;0.00;;;17.10;99.90;;;;;;5014845;28;20060;-67
2023/07/24 01:25:03;;;;;;;0.00;0.00;;;17.10;99.90;;;;;;5025243;28;20091;-67
2023/07/24 01:27:29;;;;;;;1.35;0.60;;;17.10;99.90;;;;;;5021034;28;20052;-67
2023/07/24 01:29:55;;;;;;;0.55;0.38;;;17.10;99.90;;;;;;5025981;28;20120;-67
2023/07/24 01:32:21;;;;;;;0.10;0.10;;;17.10;99.90;;;;;;5024437;28;20049;-67
2023/07/24 01:34:47;;;;;;;0.55;0.55;;;17.20;99.90;;;;;;5021680;28;20488;-67
2023/07/24 01:37:13;;;;;;;0.00;0.00;;;17.20;99.90;;;;;;5025413;28;20416;-67
2023/07/24 01:39:43;;;;;;;0.00;0.00;;;17.20;99.90;;;;;;5021624;28;20041;-67
2023/07/24 01:42:10;;;;;;;0.65;0.65;;;17.20;99.90;;;;;;5021382;28;20057;-67
2023/07/24 01:44:36;;;;;;;1.65;0.22;;;17.20;99.90;;;;;;5025681;28;20611;-67
2023/07/24 01:47:02;;;;;;;0.68;0.68;;;17.30;99.90;;;;;;5019424;28;20102;-67
2023/07/24 01:49:27;;;;;;;0.00;0.00;;;17.20;99.90;;;;;;5022098;28;20045;-67
2023/07/24 01:51:53;;;;;;;0.20;0.20;;;17.30;99.90;;;;;;5020167;28;20125;-67
2023/07/24 01:54:18;;;;;;;0.10;0.10;;;17.30;99.90;;;;;;5017655;28;20064;-67
2023/07/24 01:56:44;;;;;;;0.00;0.00;;;17.30;99.90;;;;;;5029159;28;20042;-67
2023/07/24 01:59:10;;;;;;;0.00;0.00;;;17.30;99.90;;;;;;5019907;28;20045;-67
2023/07/24 02:01:35;;;;;;;2.20;0.40;;;17.30;99.90;;;;;;5031518;28;20053;-67
2023/07/24 02:04:02;;;;;;;0.63;0.63;;;17.30;99.90;;;;;;5027315;28;20132;-67
2023/07/24 02:06:27;;;;;;;0.10;0.10;;;17.30;99.90;;;;;;5025264;28;20049;-67
2023/07/24 02:08:53;;;;;;;2.53;2.33;;;17.30;99.90;;;;;;5024486;28;20042;-67
2023/07/24 02:11:18;;;;;;;0.00;0.00;;;17.30;99.90;;;;;;5016265;28;20048;-67
2023/07/24 02:13:45;;;;;;;0.13;0.13;;;17.30;99.90;;;;;;5027707;28;20118;-67
2023/07/24 02:16:11;;;;;;;24.52;1.00;;;17.40;99.90;;;;;;5024185;28;20618;-67
2023/07/24 02:18:38;;;;;;;1.77;0.75;;;17.40;99.90;;;;;;5028700;28;20049;-67
2023/07/24 02:21:03;;;;;;;1.65;0.45;;;17.30;99.90;;;;;;5028213;28;20828;-67
2023/07/24 02:23:29;;;;;;;0.20;0.20;;;17.40;99.90;;;;;;5026091;28;20037;-67
2023/07/24 02:25:55;;;;;;;3.85;1.00;;;17.40;99.90;;;;;;5029282;28;20513;-67
2023/07/24 02:28:20;;;;;;;0.00;0.00;;;17.40;99.90;;;;;;5026952;28;20432;-67
2023/07/24 02:30:51;;;;;;;0.10;0.10;;;17.40;99.90;;;;;;5026462;28;20064;-67
2023/07/24 02:33:16;;;;;;;0.30;0.30;;;17.40;99.90;;;;;;5027294;28;20054;-67
2023/07/24 02:35:42;;;;;;;0.00;0.00;;;17.40;99.90;;;;;;5028275;28;20106;-67
2023/07/24 02:38:08;;;;;;;0.45;0.45;;;17.40;99.90;;;;;;5022795;28;20124;-67
2023/07/24 02:40:35;;;;;;;2.83;2.03;;;17.40;99.90;;;;;;5021258;28;20040;-67
2023/07/24 02:43:00;;;;;;;0.10;0.10;;;17.40;99.90;;;;;;5022867;28;20045;-67
2023/07/24 02:45:26;;;;;;;0.75;0.75;;;17.40;99.90;;;;;;5021016;28;20393;-67
2023/07/24 02:47:52;;;;;;;0.20;0.20;;;17.40;99.90;;;;;;5017783;28;20030;-66
2023/07/24 02:50:17;;;;;;;0.10;0.10;;;17.40;99.90;;;;;;5015397;28;20081;-67
2023/07/24 02:52:43;;;;;;;0.60;0.60;;;17.40;99.90;;;;;;5021000;28;20050;-67
2023/07/24 02:55:08;;;;;;;1.30;0.85;;;17.40;99.90;;;;;;5025009;28;20048;-67
2023/07/24 02:57:34;;;;;;;0.68;0.63;;;17.40;99.90;;;;;;5020063;28;20052;-67
2023/07/24 02:59:59;;;;;;;0.15;0.15;;;17.40;99.90;;;;;;5030106;28;20729;-67
2023/07/24 03:02:25;;;;;;;0.32;0.32;;;17.40;99.90;;;;;;5015291;28;20595;-67
2023/07/24 03:04:51;;;;;;;0.10;0.10;;;17.40;99.90;;;;;;5019726;28;20033;-67
2023/07/24 03:07:16;;;;;;;1.75;0.43;;;17.40;99.90;;;;;;5026199;28;20416;-67
2023/07/24 03:09:42;;;;;;;0.00;0.00;;;17.40;99.90;;;;;;5018437;28;20052;-67
2023/07/24 03:12:08;;;;;;;0.35;0.35;;;17.40;99.90;;;;;;5016925;28;20120;-67
2023/07/24 03:14:33;;;;;;;2.65;1.98;;;17.40;99.90;;;;;;5020983;28;20473;-67
2023/07/24 03:16:59;;;;;;;0.00;0.00;;;17.30;99.90;;;;;;5024731;28;20478;-67
2023/07/24 03:19:24;;;;;;;0.00;0.00;;;17.40;99.90;;;;;;5020080;28;20085;-67
2023/07/24 03:21:50;;;;;;;0.65;0.65;;;17.40;99.90;;;;;;5024267;28;20045;-67
2023/07/24 03:24:16;;;;;;;0.15;0.15;;;17.40;99.90;;;;;;5027953;28;20037;-67
2023/07/24 03:26:42;;;;;;;0.25;0.25;;;17.40;99.90;;;;;;5022003;28;20034;-67
2023/07/24 03:29:08;;;;;;;1.08;0.40;;;17.40;99.90;;;;;;5021606;28;20413;-67
2023/07/24 03:31:33;;;;;;;0.00;0.00;;;17.40;99.90;;;;;;5023820;28;20057;-67
2023/07/24 03:33:59;;;;;;;4.63;1.17;;;17.40;99.90;;;;;;5018005;28;20087;-67
2023/07/24 03:36:25;;;;;;;0.17;0.17;;;17.40;99.90;;;;;;5021277;28;20038;-67
2023/07/24 03:38:50;;;;;;;0.00;0.00;;;17.40;99.90;;;;;;5017340;28;20514;-67
2023/07/24 03:41:16;;;;;;;0.00;0.00;;;17.40;99.90;;;;;;5013912;28;20516;-67
2023/07/24 03:43:41;;;;;;;0.63;0.63;;;17.40;99.90;;;;;;5027540;28;20068;-67
2023/07/24 03:46:08;;;;;;;0.00;0.00;;;17.40;99.90;;;;;;5020833;28;20046;-67
2023/07/24 03:48:34;;;;;;;0.65;0.38;;;17.40;99.90;;;;;;5027359;28;20038;-67
2023/07/24 03:51:01;;;;;;;0.08;0.08;;;17.40;99.90;;;;;;5031747;28;20072;-67
2023/07/24 03:53:27;;;;;;;0.35;0.35;;;17.40;99.90;;;;;;5028280;28;20050;-67
2023/07/24 03:55:52;;;;;;;0.10;0.10;;;17.40;99.90;;;;;;5029203;28;20048;-67
2023/07/24 03:58:18;;;;;;;0.00;0.00;;;17.40;99.90;;;;;;5023061;28;20459;-67
2023/07/24 04:00:44;;;;;;;0.13;0.13;;;17.40;99.90;;;;;;5031427;28;20132;-67
2023/07/24 04:03:10;;;;;;;0.15;0.15;;;17.40;99.90;;;;;;5029907;28;20292;-67
2023/07/24 04:05:36;;;;;;;0.05;0.05;;;17.40;99.90;;;;;;5022114;28;20046;-67
2023/07/24 04:08:02;;;;;;;1.42;1.33;;;17.40;99.90;;;;;;5030587;28;20029;-67
2023/07/24 04:10:28;;;;;;;0.08;0.08;;;17.40;99.90;;;;;;5030383;28;20508;-67
2023/07/24 04:12:54;;;;;;;0.57;0.57;;;17.40;99.90;;;;;;5028961;28;20034;-67
2023/07/24 04:15:20;;;;;;;0.15;0.08;;;17.40;99.90;;;;;;5021757;28;20453;-67
2023/07/24 04:17:45;;;;;;;0.28;0.28;;;17.40;99.90;;;;;;5028390;28;20444;-67
2023/07/24 04:20:11;;;;;;;2.20;1.65;;;17.40;99.90;;;;;;5028444;28;20105;-67
2023/07/24 04:22:37;;;;;;;0.98;0.80;;;17.40;99.90;;;;;;5024602;28;20505;-67
2023/07/24 04:25:03;;;;;;;0.00;0.00;;;17.40;99.90;;;;;;5023691;28;20167;-68
2023/07/24 04:27:28;;;;;;;0.13;0.13;;;17.40;99.90;;;;;;5027014;28;20052;-67
2023/07/24 04:29:54;;;;;;;0.00;0.00;;;17.40;99.90;;;;;;5018343;28;20046;-67
2023/07/24 04:32:20;;;;;;;0.20;0.20;;;17.40;99.90;;;;;;5026733;28;20093;-67
2023/07/24 04:34:45;;;;;;;0.22;0.22;;;17.40;99.90;;;;;;5025905;28;20045;-67
2023/07/24 04:37:11;;;;;;;0.20;0.20;;;17.50;99.90;;;;;;5026398;28;20068;-67
2023/07/24 04:39:38;;;;;;;0.15;0.15;;;17.50;99.90;;;;;;5022659;28;20041;-67
2023/07/24 04:42:04;;;;;;;0.20;0.17;;;17.40;99.90;;;;;;5024332;28;20107;-67
2023/07/24 04:44:31;;;;;;;0.75;0.75;;;17.40;99.90;;;;;;5026477;28;20141;-67
2023/07/24 04:46:57;;;;;;;0.10;0.10;;;17.50;99.90;;;;;;5024592;28;20148;-67
2023/07/24 04:49:24;;;;;;;0.38;0.38;;;17.40;99.90;;;;;;5019253;28;20564;-67
2023/07/24 04:51:50;;;;;;;0.00;0.00;;;17.50;99.90;;;;;;5019974;28;20073;-67
2023/07/24 04:54:15;;;;;;;1.02;0.75;;;17.40;99.90;;;;;;5023093;28;20077;-67
2023/07/24 04:56:41;;;;;;;20.65;1.10;;;17.50;99.90;;;;;;5020606;28;20033;-67
2023/07/24 04:59:07;;;;;;;0.10;0.10;;;17.50;99.90;;;;;;5029868;28;20389;-67
2023/07/24 05:01:32;;;;;;;0.10;0.10;;;17.50;99.90;;;;;;5015122;28;20057;-67
2023/07/24 05:03:58;;;;;;;0.05;0.05;;;17.50;99.90;;;;;;5019179;28;20045;-67
2023/07/24 05:06:23;;;;;;;0.05;0.05;;;17.50;99.90;;;;;;5020937;28;20051;-67
2023/07/24 05:08:49;;;;;;;0.20;0.20;;;17.50;99.90;;;;;;5030335;28;20040;-67
2023/07/24 05:11:15;;;;;;;0.00;0.00;;;17.50;99.90;;;;;;5019477;28;20052;-67
2023/07/24 05:13:40;;;;;;;0.00;0.00;;;17.50;99.90;;;;;;5028281;28;20045;-67
2023/07/24 05:16:06;;;;;;;0.30;0.30;;;17.50;99.90;;;;;;5025256;28;20469;-67
2023/07/24 05:18:31;;;;;;;0.20;0.20;;;17.50;99.90;;;;;;5023741;28;20125;-67
2023/07/24 05:20:57;;;;;;;1.45;0.30;;;17.50;99.90;;;;;;5027394;28;20045;-67
2023/07/24 05:23:23;;;;;;;0.20;0.20;;;17.50;99.90;;;;;;5021021;28;20421;-67
2023/07/24 05:25:57;;;;;;;0.20;0.17;;;17.50;99.90;;;;;;5023403;28;20049;-67
2023/07/24 05:28:23;;;;;;;0.17;0.03;;;17.50;99.90;;;;;;5023992;28;20072;-67
2023/07/24 05:30:48;;;;;;;0.10;0.10;;;17.50;99.90;;;;;;5023222;28;20552;-67
2023/07/24 05:33:14;;;;;;;0.65;0.52;;;17.50;99.90;;;;;;5028708;28;20115;-67
2023/07/24 05:35:40;;;;;;;0.88;0.85;;;17.60;99.90;;;;;;5031222;28;20037;-67
2023/07/24 05:38:05;;;;;;;0.00;0.00;;;17.60;99.90;;;;;;5021378;28;20045;-67
2023/07/24 05:40:31;;;;;;;0.08;0.08;;;17.60;99.90;;;;;;5024252;28;20045;-67
2023/07/24 05:42:56;;;;;;;0.40;0.40;;;17.60;99.90;;;;;;5023867;28;20080;-67
2023/07/24 05:45:22;;;;;;;0.00;0.00;;;17.70;99.90;;;;;;5029844;28;20495;-67
2023/07/24 05:47:48;;;;;;;0.15;0.15;;;17.70;99.90;;;;;;5029630;28;20037;-67
2023/07/24 05:50:13;;;;;;;0.00;0.00;;;17.70;99.90;;;;;;5022210;28;20053;-67
2023/07/24 05:52:39;;;;;;;0.43;0.43;;;17.80;99.90;;;;;;5019485;28;20038;-67
2023/07/24 05:55:06;;;;;;;0.30;0.30;;;17.80;99.90;;;;;;5026163;28;20044;-67
2023/07/24 05:57:31;;;;;;;0.75;0.40;;;17.90;99.90;;;;;;5024824;28;20034;-67
2023/07/24 05:59:57;;;;;;;0.43;0.43;;;17.90;99.90;;;;;;5023035;28;20049;-67
2023/07/24 06:02:22;;;;;;;0.10;0.10;;;17.90;99.90;;;;;;5025205;28;20049;-68
2023/07/24 06:04:48;;;;;;;0.00;0.00;;;18.00;99.90;;;;;;5028322;28;20041;-68
2023/07/24 06:07:14;;;;;;;0.10;0.10;;;18.10;99.90;;;;;;5015951;28;20141;-68
2023/07/24 06:09:39;;;;;;;0.45;0.45;;;18.10;99.90;;;;;;5026079;28;20038;-67
2023/07/24 06:12:05;;;;;;;0.00;0.00;;;18.10;99.90;;;;;;5027754;28;20057;-67
2023/07/24 06:14:30;;;;;;;1.38;1.17;;;18.10;99.90;;;;;;5029780;28;20573;-68
2023/07/24 06:16:56;;;;;;;1.88;0.38;;;18.20;99.90;;;;;;5016506;28;20502;-68
2023/07/24 06:19:22;;;;;;;0.00;0.00;;;18.20;99.90;;;;;;5022695;28;20482;-67
2023/07/24 06:21:47;;;;;;;1.00;0.73;;;18.10;99.90;;;;;;5018317;28;20053;-68
2023/07/24 06:24:13;;;;;;;0.00;0.00;;;18.20;99.90;;;;;;5029844;28;20056;-67
2023/07/24 06:26:39;;;;;;;1.65;0.75;;;18.20;99.90;;;;;;5020094;28;20037;-68
2023/07/24 06:29:05;;;;;;;0.10;0.10;;;18.30;99.90;;;;;;5026483;28;20045;-67
2023/07/24 06:31:30;;;;;;;0.00;0.00;;;18.30;99.90;;;;;;5020296;28;20137;-67
2023/07/24 06:33:56;;;;;;;0.43;0.43;;;18.30;99.90;;;;;;5024915;28;20402;-67
2023/07/24 06:36:22;;;;;;;0.30;0.30;;;18.30;99.90;;;;;;5019460;28;20044;-67
2023/07/24 06:38:47;;;;;;;0.20;0.20;;;18.40;99.90;;;;;;5014953;28;20128;-67
2023/07/24 06:41:15;;;;;;;0.20;0.20;;;18.40;99.90;;;;;;5025108;28;20041;-67
2023/07/24 06:43:42;;;;;;;0.00;0.00;;;18.40;99.90;;;;;;5015949;28;20045;-67
2023/07/24 06:46:07;;;;;;;0.00;0.00;;;18.40;99.90;;;;;;5023756;28;20056;-67
2023/07/24 06:48:33;;;;;;;1.27;0.40;;;18.40;99.90;;;;;;5026564;28;20041;-67
2023/07/24 06:50:59;;;;;;;0.10;0.10;;;18.50;99.90;;;;;;5023188;28;20481;-67
2023/07/24 06:53:24;;;;;;;0.20;0.20;;;18.50;99.90;;;;;;5024036;28;20477;-67
2023/07/24 06:55:50;;;;;;;3.50;0.88;;;18.50;99.90;;;;;;5020064;28;20084;-67
2023/07/24 06:58:15;;;;;;;0.30;0.30;;;18.50;99.90;;;;;;5019205;28;20128;-67
2023/07/24 07:00:41;;;;;;;0.00;0.00;;;18.50;99.90;;;;;;5023094;28;20041;-67
2023/07/24 07:03:07;;;;;;;0.85;0.38;;;18.40;99.90;;;;;;5025668;28;20041;-67
2023/07/24 07:05:32;;;;;;;0.20;0.20;;;18.50;99.90;;;;;;5018898;28;20497;-67
2023/07/24 07:07:58;;;;;;;2.10;1.58;;;18.50;99.90;;;;;;5028693;28;20045;-67
2023/07/24 07:10:24;;;;;;;13.25;0.95;;;18.50;99.90;;;;;;5016079;28;20133;-67
2023/07/24 07:12:50;;;;;;;0.00;0.00;;;18.40;99.90;;;;;;5019115;28;20045;-68
2023/07/24 07:15:15;;;;;;;0.15;0.15;;;18.50;99.90;;;;;;5021385;28;20038;-67
2023/07/24 07:17:41;;;;;;;0.28;0.25;;;18.50;99.90;;;;;;5016605;28;20450;-67
2023/07/24 07:20:07;;;;;;;2.22;1.27;;;18.50;99.90;;;;;;5027733;28;20464;-67
2023/07/24 07:22:33;;;;;;;0.28;0.25;;;18.50;99.90;;;;;;5023324;28;20168;-68
2023/07/24 07:24:58;;;;;;;3.40;1.02;;;18.60;99.90;;;;;;5026712;28;20132;-67
2023/07/24 07:27:24;;;;;;;0.15;0.15;;;18.60;99.90;;;;;;5018924;28;20104;-67
2023/07/24 07:29:49;;;;;;;2.10;1.05;;;18.70;99.90;;;;;;5020970;28;20050;-67
2023/07/24 07:32:15;;;;;;;0.22;0.08;;;18.70;99.90;;;;;;5022737;28;20042;-67
2023/07/24 07:34:41;;;;;;;3.95;1.73;;;18.70;99.90;;;;;;5022398;28;20054;-67
2023/07/24 07:37:06;;;;;;;0.00;0.00;;;18.80;99.90;;;;;;5026448;28;20051;-67
2023/07/24 07:39:32;;;;;;;0.55;0.40;;;18.80;99.90;;;;;;5021141;28;20092;-67
2023/07/24 07:41:58;;;;;;;0.52;0.52;;;18.80;99.90;;;;;;5020251;28;20485;-67
2023/07/24 07:44:24;;;;;;;0.52;0.52;;;18.80;99.90;;;;;;5023804;28;20148;-67
2023/07/24 07:46:50;;;;;;;1.88;1.73;;;18.80;99.90;;;;;;5026281;28;20045;-67
2023/07/24 07:49:15;;;;;;;0.88;0.88;;;18.80;99.90;;;;;;5015453;28;20125;-67
2023/07/24 07:51:41;;;;;;;1.13;1.08;;;18.80;99.90;;;;;;5022386;28;20048;-67
2023/07/24 07:54:07;;;;;;;1.85;1.10;;;18.80;99.90;;;;;;5018815;28;20085;-67
2023/07/24 07:56:32;;;;;;;0.35;0.35;;;18.80;99.90;;;;;;5021711;28;20487;-67
2023/07/24 07:58:58;;;;;;;0.08;0.08;;;18.80;99.90;;;;;;5015455;28;20116;-67
2023/07/24 08:01:23;;;;;;;0.00;0.00;;;18.80;99.90;;;;;;5022703;28;20042;-67
2023/07/24 08:03:49;;;;;;;1.55;1.00;;;18.80;99.90;;;;;;5015726;28;20061;-67
2023/07/24 08:06:14;;;;;;;0.00;0.00;;;18.80;99.90;;;;;;5018518;28;20076;-68
2023/07/24 08:08:40;;;;;;;0.15;0.15;;;18.80;99.90;;;;;;5025295;28;20057;-67
2023/07/24 08:11:06;;;;;;;0.00;0.00;;;18.90;99.90;;;;;;5022571;28;20262;-67
2023/07/24 08:13:32;;;;;;;0.60;0.60;;;18.90;99.90;;;;;;5023467;28;20041;-67
2023/07/24 08:15:59;;;;;;;0.00;0.00;;;19.00;99.90;;;;;;5022890;28;20061;-67
2023/07/24 08:18:25;;;;;;;2.10;0.43;;;19.20;99.90;;;;;;5025001;28;20052;-67
2023/07/24 08:20:51;;;;;;;4.05;1.75;;;19.30;99.90;;;;;;5021789;28;20049;-67
2023/07/24 08:23:17;;;;;;;1.98;0.77;;;19.50;99.90;;;;;;5021503;28;20136;-67
2023/07/24 08:25:53;;;;;;;0.50;0.32;;;19.50;99.90;;;;;;5025142;28;20053;-67
2023/07/24 08:28:19;;;;;;;0.20;0.20;;;19.40;99.90;;;;;;5025926;28;20128;-66
2023/07/24 08:30:46;;;;;;;1.55;0.40;;;19.20;99.90;;;;;;5024285;28;20114;-66
2023/07/24 08:33:12;;;;;;;0.15;0.15;;;19.20;99.90;;;;;;5028132;28;20057;-67
2023/07/24 08:35:38;;;;;;;0.35;0.30;;;19.10;99.90;;;;;;5029412;28;20033;-67
2023/07/24 08:38:03;;;;;;;1.02;0.60;;;19.10;99.90;;;;;;5030485;28;20037;-67
2023/07/24 08:40:29;;;;;;;0.00;0.00;;;19.00;99.90;;;;;;5026513;28;20136;-67
2023/07/24 08:42:55;;;;;;;0.30;0.25;;;18.90;99.90;;;;;;5025884;28;20393;-68
2023/07/24 08:45:21;;;;;;;0.10;0.10;;;18.80;99.90;;;;;;5033559;28;20049;-68
2023/07/24 08:47:48;;;;;;;0.10;0.10;;;18.60;99.90;;;;;;5022904;28;20045;-68
2023/07/24 08:50:15;;;;;;;0.10;0.10;;;18.50;99.90;;;;;;5021466;28;20509;-68
2023/07/24 08:52:42;;;;;;;0.43;0.43;;;18.40;99.90;;;;;;5019482;28;20064;-68
2023/07/24 08:55:08;;;;;;;0.20;0.20;;;18.30;99.90;;;;;;5028937;28;20053;-67
2023/07/24 08:57:34;;;;;;;0.00;0.00;;;18.30;99.90;;;;;;5027915;28;20042;-67
2023/07/24 09:00:04;;;;;;;0.38;0.38;;;18.30;99.90;;;;;;5029648;28;20500;-67
2023/07/24 09:02:36;;;;;;;0.00;0.00;;;18.30;99.90;;;;;;5025120;28;20060;-67
2023/07/24 09:05:03;;;;;;;0.10;0.10;;;18.40;99.90;;;;;;5017415;28;20041;-67
2023/07/24 09:07:30;;;;;;;0.80;0.70;;;18.50;99.90;;;;;;5023743;28;20046;-67
2023/07/24 09:09:55;;;;;;;0.00;0.00;;;18.60;99.90;;;;;;5029298;28;20037;-67
2023/07/24 09:12:22;;;;;;;0.43;0.38;;;18.70;99.90;;;;;;5025092;28;20049;-67
2023/07/24 09:14:48;;;;;;;0.03;0.03;;;18.70;99.90;;;;;;5024134;28;20124;-67
2023/07/24 09:17:14;;;;;;;0.00;0.00;;;18.70;99.90;;;;;;5019689;28;20175;-67
2023/07/24 09:19:40;;;;;;;0.13;0.13;;;18.70;99.90;;;;;;5022982;28;20053;-66
2023/07/24 09:22:14;;;;;;;0.17;0.10;;;18.70;99.90;;;;;;5029898;28;20053;-67
2023/07/24 09:24:56;;;;;;;0.70;0.52;;;18.60;99.90;;;;;;5025311;28;20037;-67
2023/07/24 09:27:26;;;;;;;0.08;0.08;;;18.60;99.90;;;;;;5030870;28;20121;-67
2023/07/24 09:29:52;;;;;;;0.30;0.30;;;18.60;99.90;;;;;;5024883;28;20060;-67
2023/07/24 09:32:20;;;;;;;0.40;0.40;;;18.60;99.90;;;;;;5017264;28;20510;-67
2023/07/24 09:34:46;;;;;;;8.65;4.10;;;18.60;99.90;;;;;;5025901;28;20041;-66
2023/07/24 09:37:32;;;;;;;1.17;0.68;;;18.80;99.90;;;;;;5021520;28;20581;-66
2023/07/24 09:39:58;;;;;;;0.28;0.28;;;19.00;99.90;;;;;;5021247;28;20049;-67
2023/07/24 09:42:34;;;;;;;0.75;0.55;;;19.10;99.90;;;;;;5028395;28;20496;-67
2023/07/24 09:45:04;;;;;;;0.40;0.40;;;19.40;99.90;;;;;;5018936;28;20072;-67
2023/07/24 09:47:30;;;;;;;0.08;0.08;;;19.40;99.90;;;;;;5020766;28;20049;-67
2023/07/24 09:49:56;;;;;;;0.63;0.40;;;19.30;99.90;;;;;;5021923;28;20041;-67
2023/07/24 09:52:24;;;;;;;0.13;0.13;;;19.20;99.90;;;;;;5020157;28;20139;-67
2023/07/24 09:55:10;;;;;;;0.10;0.10;;;19.30;99.90;;;;;;5025489;28;20088;-67
2023/07/24 09:57:36;;;;;;;0.00;0.00;;;19.40;99.90;;;;;;5020602;28;20045;-67
2023/07/24 10:00:02;;;;;;;0.30;0.30;;;19.40;99.90;;;;;;5030507;28;20044;-67
2023/07/24 10:02:29;;;;;;;0.45;0.45;;;19.50;99.90;;;;;;5028607;28;20405;-66
2023/07/24 10:04:56;;;;;;;0.52;0.45;;;19.60;99.90;;;;;;5025798;28;20053;-66
2023/07/24 10:07:23;;;;;;;0.00;0.00;;;19.60;99.90;;;;;;5018397;28;20517;-66
2023/07/24 10:09:50;;;;;;;0.00;0.00;;;19.60;99.90;;;;;;5021605;28;20049;-67
2023/07/24 10:12:20;;;;;;;0.00;0.00;;;19.90;99.90;;;;;;5025057;28;20132;-66
2023/07/24 10:14:47;;;;;;;0.40;0.40;;;20.10;99.90;;;;;;5021831;28;20171;-67
2023/07/24 10:17:12;;;;;;;0.20;0.20;;;20.00;99.90;;;;;;5026028;28;20060;-67
2023/07/24 10:19:45;;;;;;;0.00;0.00;;;19.90;99.90;;;;;;5024560;28;20038;-67
2023/07/24 10:22:20;;;;;;;0.22;0.22;;;19.70;99.90;;;;;;5024448;28;20045;-67
2023/07/24 10:24:46;;;;;;;0.10;0.10;;;19.50;99.90;;;;;;5023023;28;20084;-67
2023/07/24 10:27:12;;;;;;;0.00;0.00;;;19.50;99.90;;;;;;5023579;28;20041;-67
2023/07/24 10:29:38;;;;;;;0.00;0.00;;;19.60;99.90;;;;;;5026829;28;20473;-67
2023/07/24 10:32:16;;;;;;;0.10;0.10;;;20.10;99.90;;;;;;5025197;28;20065;-67
2023/07/24 10:34:41;;;;;;;0.10;0.10;;;20.50;99.90;;;;;;5025330;28;20062;-67
2023/07/24 10:37:11;;;;;;;0.55;0.55;;;20.50;99.90;;;;;;5017504;28;20046;-67
2023/07/24 10:39:40;;;;;;;0.25;0.25;;;20.50;99.90;;;;;;5017469;28;20038;-67
2023/07/24 10:42:10;;;;;;;0.25;0.17;;;20.50;99.90;;;;;;5019845;28;20125;-67
2023/07/24 10:44:37;;;;;;;0.95;0.52;;;20.50;99.90;;;;;;5020821;28;20038;-67
2023/07/24 10:47:03;;;;;;;0.30;0.30;;;20.40;99.90;;;;;;5022119;28;20116;-67
2023/07/24 10:49:29;;;;;;;0.00;0.00;;;20.50;99.90;;;;;;5026414;28;20082;-67
2023/07/24 10:51:58;;;;;;;0.20;0.20;;;20.40;99.90;;;;;;5023466;28;20572;-67
2023/07/24 10:54:24;;;;;;;0.40;0.38;;;20.40;99.90;;;;;;5023051;28;20041;-67
2023/07/24 10:56:49;;;;;;;0.00;0.00;;;20.50;99.90;;;;;;5028744;28;20046;-67
2023/07/24 10:59:15;;;;;;;1.45;0.55;;;20.50;99.90;;;;;;5026767;28;20045;-67
2023/07/24 11:01:41;;;;;;;0.10;0.10;;;20.50;99.90;;;;;;5024731;28;20045;-67
2023/07/24 11:04:07;;;;;;;0.10;0.10;;;20.80;99.90;;;;;;5018490;28;20050;-67
2023/07/24 11:06:33;;;;;;;0.20;0.20;;;20.90;99.90;;;;;;5021019;28;20061;-67
2023/07/24 11:09:00;;;;;;;4.72;2.28;;;20.80;99.90;;;;;;5014782;28;20048;-67
2023/07/24 11:11:33;;;;;;;0.10;0.10;;;20.70;99.90;;;;;;5019438;28;20045;-65
2023/07/24 11:14:01;;;;;;;0.52;0.43;;;20.60;99.90;;;;;;5028140;28;20041;-67
2023/07/24 11:16:27;;;;;;;1.85;0.63;;;20.60;99.90;;;;;;5027486;28;20049;-67
2023/07/24 11:18:53;;;;;;;4.07;0.80;;;20.80;99.90;;;;;;5019428;28;21033;-66
2023/07/24 11:21:19;;;;;;;0.00;0.00;;;20.80;99.90;;;;;;5023746;28;20083;-66
2023/07/24 11:23:52;;;;;;;0.10;0.10;;;20.70;99.90;;;;;;5021509;28;20038;-66
2023/07/24 11:26:19;;;;;;;;;;;20.60;99.90;;;;;;5025729;28;20037;-67
2023/07/24 11:28:45;;;;;;;3.42;0.88;;;20.60;99.90;;;;;;5025886;28;19922;-67
2023/07/24 11:31:11;;;;;;;0.00;0.00;;;20.60;99.90;;;;;;5019486;28;20489;-67
2023/07/24 11:33:39;;;;;;;0.10;0.10;;;20.50;99.90;;;;;;5026427;28;20146;-67
2023/07/24 11:36:05;;;;;;;0.00;0.00;;;20.70;99.90;;;;;;5020737;28;20053;-67
2023/07/24 11:38:30;;;;;;;0.38;0.38;;;20.80;99.90;;;;;;5021086;28;20413;-67
2023/07/24 11:40:56;;;;;;;0.00;0.00;;;21.10;99.90;;;;;;5020380;28;20045;-66
2023/07/24 11:43:24;;;;;;;0.00;0.00;;;21.20;99.90;;;;;;5017976;28;20048;-67
2023/07/24 11:45:55;;;;;;;0.10;0.10;;;21.30;99.90;;;;;;5016609;28;20046;-67
2023/07/24 11:48:23;;;;;;;0.15;0.15;;;21.60;99.90;;;;;;5017841;28;20050;-67
2023/07/24 11:50:51;;;;;;;0.55;0.47;;;21.80;99.90;;;;;;5026013;28;20045;-67
2023/07/24 11:53:20;;;;;;;0.00;0.00;;;22.20;99.90;;;;;;5014636;28;20045;-67
2023/07/24 11:55:47;;;;;;;0.13;0.13;;;22.40;99.90;;;;;;5019456;28;20049;-67
2023/07/24 11:58:16;;;;;;;0.05;0.05;;;22.30;99.90;;;;;;5016089;28;20046;-67
2023/07/24 12:00:42;;;;;;;0.20;0.20;;;22.00;99.90;;;;;;5036038;28;20382;-67
2023/07/24 12:03:08;;;;;;;0.30;0.30;;;22.00;99.90;;;;;;5018863;28;20056;-67
2023/07/24 12:05:41;;;;;;;0.25;0.25;;;22.30;99.90;;;;;;5027063;28;20066;-67
2023/07/24 12:08:08;;;;;;;0.00;0.00;;;22.20;99.90;;;;;;5029741;28;20085;-67
2023/07/24 12:10:37;;;;;;;0.10;0.10;;;22.20;99.90;;;;;;5024524;28;20045;-67
2023/07/24 12:13:03;;;;;;;0.00;0.00;;;22.30;99.90;;;;;;5024534;28;20046;-67
2023/07/24 12:15:28;;;;;;;0.00;0.00;;;22.20;99.90;;;;;;5028483;28;20457;-67
2023/07/24 12:17:54;;;;;;;0.10;0.10;;;22.20;99.90;;;;;;5028911;28;20033;-67
2023/07/24 12:20:20;;;;;;;0.00;0.00;;;22.00;99.90;;;;;;5022251;28;20089;-67
2023/07/24 12:22:47;;;;;;;0.13;0.13;;;21.70;99.90;;;;;;5021790;28;20084;-67
2023/07/24 12:25:13;;;;;;;0.30;0.30;;;21.50;99.90;;;;;;5019537;28;20486;-67
2023/07/24 12:27:41;;;;;;;0.00;0.00;;;21.40;99.90;;;;;;5025113;28;20497;-67
2023/07/24 12:30:07;;;;;;;0.05;0.05;;;21.40;99.90;;;;;;5025152;28;20083;-67
2023/07/24 12:32:32;;;;;;;0.00;0.00;;;21.70;99.90;;;;;;5029028;28;20107;-66
2023/07/24 12:34:58;;;;;;;0.00;0.00;;;22.10;99.90;;;;;;5020788;28;20413;-66
2023/07/24 12:37:24;;;;;;;0.00;0.00;;;21.70;99.90;;;;;;5028759;28;20456;-67
2023/07/24 12:39:49;;;;;;;0.00;0.00;;;21.60;99.90;;;;;;5022808;28;20140;-67
2023/07/24 12:42:15;;;;;;;0.20;0.20;;;21.60;99.90;;;;;;5021298;28;20113;-67
2023/07/24 12:44:42;;;;;;;0.73;0.65;;;21.20;99.90;;;;;;5021203;28;20049;-67